Time;durP1;ratioP1;P1;durP2;ratioP2;P2;SDS_P1;SDS_P2;PMS_P1;PMS_P2;Temp;Humidity;BMP_temperature;BMP_pressure;BME280_temperature;BME280_humidity;BME280_pressure;Samples;Min_cycle;Max_cycle;Signal;HPM_P1;HPM_P2
2022/07/08 00:01:45;;;;;;;9.90;2.30;;;15.40;99.90;;;;;;5025427;28;20582;-63
2022/07/08 00:04:11;;;;;;;9.10;2.38;;;15.40;99.90;;;;;;5032099;28;20424;-67
2022/07/08 00:06:37;;;;;;;9.10;1.98;;;15.30;99.90;;;;;;5024976;28;20026;-62
2022/07/08 00:09:02;;;;;;;6.55;2.00;;;15.30;99.90;;;;;;5022736;28;20114;-62
2022/07/08 00:11:28;;;;;;;11.63;2.28;;;15.30;99.90;;;;;;5025570;28;20128;-62
2022/07/08 00:13:54;;;;;;;10.95;2.28;;;15.30;99.90;;;;;;5025422;28;20069;-65
2022/07/08 00:16:19;;;;;;;10.02;1.90;;;15.30;99.90;;;;;;5024531;28;20038;-63
2022/07/08 00:18:45;;;;;;;6.82;1.88;;;15.20;99.90;;;;;;5019674;28;20038;-65
2022/07/08 00:21:11;;;;;;;10.32;2.40;;;15.20;99.90;;;;;;5028435;28;20507;-65
2022/07/08 00:23:36;;;;;;;12.80;2.67;;;15.20;99.90;;;;;;5017637;28;20034;-64
2022/07/08 00:26:02;;;;;;;10.63;2.10;;;15.20;99.90;;;;;;5027515;28;20029;-64
2022/07/08 00:28:28;;;;;;;6.95;1.90;;;15.20;99.90;;;;;;5016556;28;20030;-63
2022/07/08 00:30:53;;;;;;;6.55;2.10;;;15.10;99.90;;;;;;5018742;28;20038;-63
2022/07/08 00:33:19;;;;;;;8.48;2.08;;;15.00;99.90;;;;;;5021288;28;20037;-64
2022/07/08 00:35:44;;;;;;;8.82;2.10;;;15.10;99.90;;;;;;5022078;28;20044;-64
2022/07/08 00:38:10;;;;;;;7.47;2.13;;;15.10;99.90;;;;;;5027060;28;20087;-63
2022/07/08 00:40:35;;;;;;;11.25;2.03;;;15.10;99.90;;;;;;5014404;28;20076;-65
2022/07/08 00:43:01;;;;;;;8.50;1.80;;;15.10;99.90;;;;;;5023990;28;20045;-65
2022/07/08 00:45:27;;;;;;;7.80;2.00;;;15.10;99.90;;;;;;5022617;28;20049;-65
2022/07/08 00:47:53;;;;;;;6.65;1.73;;;15.10;99.90;;;;;;5017316;28;20077;-64
2022/07/08 00:50:20;;;;;;;7.38;2.25;;;15.10;99.90;;;;;;5027894;28;20069;-65
2022/07/08 00:52:46;;;;;;;8.95;2.00;;;15.10;99.90;;;;;;5026064;28;20590;-64
2022/07/08 00:55:12;;;;;;;5.28;1.52;;;15.10;99.90;;;;;;5027078;28;20037;-65
2022/07/08 00:57:39;;;;;;;7.65;1.98;;;15.00;99.90;;;;;;5015488;28;20404;-65
2022/07/08 01:00:06;;;;;;;9.23;1.90;;;15.10;99.90;;;;;;5027573;28;20490;-64
2022/07/08 01:02:32;;;;;;;8.15;2.17;;;15.10;99.90;;;;;;5035450;28;20037;-65
2022/07/08 01:04:57;;;;;;;8.38;2.17;;;15.00;99.90;;;;;;5026807;28;20040;-65
2022/07/08 01:07:24;;;;;;;9.25;1.70;;;15.10;99.90;;;;;;5029485;28;20045;-64
2022/07/08 01:09:50;;;;;;;6.28;1.73;;;15.10;99.90;;;;;;5025280;28;20029;-64
2022/07/08 01:12:16;;;;;;;10.02;2.05;;;15.00;99.90;;;;;;5018537;28;20497;-65
2022/07/08 01:14:43;;;;;;;12.40;2.55;;;15.00;99.90;;;;;;5021355;28;20542;-65
2022/07/08 01:17:08;;;;;;;6.50;1.73;;;15.00;99.90;;;;;;5020228;28;20038;-64
2022/07/08 01:19:34;;;;;;;6.28;1.92;;;15.00;99.90;;;;;;5021746;28;20045;-65
2022/07/08 01:22:00;;;;;;;7.75;1.92;;;15.00;99.90;;;;;;5026626;28;20038;-65
2022/07/08 01:24:26;;;;;;;8.65;2.50;;;15.00;99.90;;;;;;5018142;28;20038;-65
2022/07/08 01:26:52;;;;;;;10.00;2.40;;;15.00;99.90;;;;;;5026085;28;20473;-62
2022/07/08 01:29:17;;;;;;;4.57;1.85;;;15.00;99.90;;;;;;5024721;28;20042;-63
2022/07/08 01:31:43;;;;;;;8.68;2.30;;;14.90;99.90;;;;;;5012090;28;20037;-65
2022/07/08 01:34:09;;;;;;;11.65;2.42;;;15.00;99.90;;;;;;5010194;28;20056;-64
2022/07/08 01:36:34;;;;;;;8.20;2.25;;;14.90;99.90;;;;;;5027172;28;20033;-65
2022/07/08 01:39:03;;;;;;;6.93;2.15;;;14.90;99.90;;;;;;5018891;28;20052;-64
2022/07/08 01:41:28;;;;;;;9.45;2.10;;;14.90;99.90;;;;;;5020318;28;20041;-64
2022/07/08 01:43:56;;;;;;;5.78;1.67;;;14.90;99.90;;;;;;5021570;28;20030;-65
2022/07/08 01:46:22;;;;;;;5.93;1.70;;;14.90;99.90;;;;;;5029375;28;20034;-62
2022/07/08 01:48:47;;;;;;;7.82;2.08;;;14.80;99.90;;;;;;5030200;28;20040;-65
2022/07/08 01:51:13;;;;;;;8.02;2.15;;;14.80;99.90;;;;;;5027049;28;20041;-65
2022/07/08 01:53:38;;;;;;;7.72;1.75;;;14.80;99.90;;;;;;5024991;28;20037;-64
2022/07/08 01:56:04;;;;;;;8.70;1.90;;;14.80;99.90;;;;;;5023523;28;20095;-64
2022/07/08 01:58:30;;;;;;;7.93;1.88;;;14.70;99.90;;;;;;5032236;28;20073;-62
2022/07/08 02:00:55;;;;;;;8.40;2.05;;;14.70;99.90;;;;;;5031935;28;20041;-65
2022/07/08 02:03:21;;;;;;;5.65;1.67;;;14.70;99.90;;;;;;5024723;28;20033;-65
2022/07/08 02:05:47;;;;;;;7.78;1.95;;;14.70;99.90;;;;;;5030032;28;20033;-64
2022/07/08 02:08:12;;;;;;;9.43;1.90;;;14.60;99.90;;;;;;5024785;28;20139;-62
2022/07/08 02:13:22;;;;;;;8.25;2.10;;;14.60;99.90;;;;;;5021137;28;20045;-65
2022/07/08 02:15:48;;;;;;;8.32;1.92;;;14.50;99.90;;;;;;5027372;28;20042;-64
2022/07/08 02:18:13;;;;;;;9.80;2.10;;;14.50;99.90;;;;;;5029100;28;20041;-64
2022/07/08 02:20:39;;;;;;;8.02;1.85;;;14.50;99.90;;;;;;5016682;28;20034;-64
2022/07/08 02:23:04;;;;;;;7.53;1.88;;;14.50;99.90;;;;;;5017744;28;20046;-65
2022/07/08 02:25:30;;;;;;;7.63;2.10;;;14.50;99.90;;;;;;5016915;28;20065;-63
2022/07/08 02:27:56;;;;;;;7.38;2.00;;;14.40;99.90;;;;;;5026746;28;20415;-64
2022/07/08 02:30:21;;;;;;;8.50;2.22;;;14.40;99.90;;;;;;5025874;28;20049;-65
2022/07/08 02:32:47;;;;;;;7.38;2.30;;;14.40;99.90;;;;;;5026982;28;20116;-63
2022/07/08 02:35:12;;;;;;;4.90;2.10;;;14.40;99.90;;;;;;5027614;28;20026;-65
2022/07/08 02:37:38;;;;;;;11.32;2.55;;;14.30;99.90;;;;;;5032869;28;20125;-65
2022/07/08 02:40:04;;;;;;;7.40;2.10;;;14.30;99.90;;;;;;5022175;28;20485;-65
2022/07/08 02:42:30;;;;;;;7.22;1.90;;;14.20;99.90;;;;;;5013549;28;20073;-64
2022/07/08 02:44:56;;;;;;;7.43;2.10;;;14.20;99.90;;;;;;5023459;28;20076;-63
2022/07/08 02:47:21;;;;;;;6.72;2.20;;;14.10;99.90;;;;;;5028120;28;20080;-59
2022/07/08 02:49:47;;;;;;;11.95;2.20;;;14.10;99.90;;;;;;5026606;28;20404;-65
2022/07/08 02:52:13;;;;;;;10.02;2.45;;;14.10;99.90;;;;;;5030884;28;20167;-65
2022/07/08 02:54:38;;;;;;;9.23;2.20;;;14.10;99.90;;;;;;5024226;28;20499;-65
2022/07/08 02:57:04;;;;;;;9.70;2.40;;;14.10;99.90;;;;;;5025857;28;20048;-65
2022/07/08 02:59:30;;;;;;;9.75;2.10;;;14.00;99.90;;;;;;5029230;28;20044;-64
2022/07/08 03:01:56;;;;;;;7.78;2.28;;;14.00;99.90;;;;;;5027866;28;20067;-63
2022/07/08 03:04:21;;;;;;;11.98;2.38;;;14.00;99.90;;;;;;5020447;28;20029;-63
2022/07/08 03:06:47;;;;;;;7.30;2.15;;;14.00;99.90;;;;;;5031083;28;20040;-63
2022/07/08 03:09:12;;;;;;;9.85;2.20;;;14.00;99.90;;;;;;5024988;28;20120;-63
2022/07/08 03:11:38;;;;;;;8.82;2.47;;;14.00;99.90;;;;;;5028466;28;20112;-64
2022/07/08 03:14:04;;;;;;;7.35;2.13;;;13.90;99.90;;;;;;5025280;28;20069;-63
2022/07/08 03:16:30;;;;;;;5.65;1.90;;;13.90;99.90;;;;;;5030968;28;20045;-63
2022/07/08 03:18:55;;;;;;;5.47;2.20;;;13.90;99.90;;;;;;5035738;28;20456;-63
2022/07/08 03:21:21;;;;;;;8.02;2.10;;;13.90;99.90;;;;;;5025658;28;20040;-64
2022/07/08 03:23:46;;;;;;;6.40;2.00;;;13.90;99.90;;;;;;5018057;28;20072;-63
2022/07/08 03:26:12;;;;;;;4.35;1.92;;;13.90;99.90;;;;;;5023275;28;20069;-63
2022/07/08 03:28:38;;;;;;;5.05;2.10;;;13.90;99.90;;;;;;5035304;28;20380;-63
2022/07/08 03:31:03;;;;;;;8.25;2.03;;;13.90;99.90;;;;;;5022918;28;20092;-63
2022/07/08 03:33:29;;;;;;;11.82;2.58;;;13.90;99.90;;;;;;5030560;28;20124;-64
2022/07/08 03:35:55;;;;;;;6.68;2.15;;;13.90;99.90;;;;;;5035233;28;20041;-63
2022/07/08 03:38:20;;;;;;;12.60;2.40;;;13.90;99.90;;;;;;5012138;28;20133;-63
2022/07/08 03:43:30;;;;;;;10.55;2.33;;;13.90;99.90;;;;;;5016922;28;20034;-63
2022/07/08 03:45:56;;;;;;;7.65;2.20;;;13.90;99.90;;;;;;5028261;28;20502;-63
2022/07/08 03:48:21;;;;;;;11.23;2.40;;;13.90;99.90;;;;;;5018169;28;20057;-63
2022/07/08 03:50:47;;;;;;;5.63;2.20;;;13.90;99.90;;;;;;5015852;28;20034;-63
2022/07/08 03:53:13;;;;;;;9.65;2.35;;;13.90;99.90;;;;;;5022267;28;20408;-63
2022/07/08 03:55:38;;;;;;;7.35;1.92;;;13.90;99.90;;;;;;5030987;28;20492;-62
2022/07/08 03:58:04;;;;;;;7.78;2.40;;;13.90;99.90;;;;;;5017491;28;20030;-62
2022/07/08 04:00:30;;;;;;;9.60;2.85;;;13.90;99.90;;;;;;5031967;28;20029;-63
2022/07/08 04:02:55;;;;;;;12.35;2.33;;;13.90;99.90;;;;;;5021427;28;20036;-64
2022/07/08 04:05:21;;;;;;;5.78;2.35;;;13.90;99.90;;;;;;5020945;28;20108;-63
2022/07/08 04:07:47;;;;;;;6.00;2.17;;;13.80;99.90;;;;;;5026791;28;20033;-64
2022/07/08 04:10:12;;;;;;;5.20;2.35;;;13.80;99.90;;;;;;5020687;28;20037;-63
2022/07/08 04:12:38;;;;;;;11.68;2.42;;;13.80;99.90;;;;;;5031835;28;20044;-63
2022/07/08 04:15:04;;;;;;;7.43;2.28;;;13.80;99.90;;;;;;5022208;28;20037;-62
2022/07/08 04:17:30;;;;;;;7.57;2.25;;;13.70;99.90;;;;;;5011439;28;20484;-63
2022/07/08 04:19:55;;;;;;;6.45;2.25;;;13.70;99.90;;;;;;5024261;28;20037;-63
2022/07/08 04:22:21;;;;;;;5.88;2.38;;;13.70;99.90;;;;;;5021396;28;20030;-64
2022/07/08 04:24:47;;;;;;;5.40;2.38;;;13.70;99.90;;;;;;5022984;28;20395;-63
2022/07/08 04:27:12;;;;;;;10.38;3.15;;;13.70;99.90;;;;;;5028560;28;20108;-64
2022/07/08 04:29:38;;;;;;;7.53;2.40;;;13.70;99.90;;;;;;5031335;28;20040;-62
2022/07/08 04:32:04;;;;;;;7.88;2.47;;;13.80;99.90;;;;;;5018318;28;20034;-63
2022/07/08 04:34:29;;;;;;;8.80;2.38;;;13.70;99.90;;;;;;5030600;28;20029;-63
2022/07/08 04:36:55;;;;;;;8.32;2.28;;;13.70;99.90;;;;;;5038055;28;20060;-64
2022/07/08 04:39:21;;;;;;;10.20;2.38;;;13.70;99.90;;;;;;5026821;28;20408;-63
2022/07/08 04:41:46;;;;;;;9.65;2.17;;;13.70;99.90;;;;;;5030097;28;20175;-63
2022/07/08 04:44:12;;;;;;;12.80;2.35;;;13.70;99.90;;;;;;5033826;28;20068;-63
2022/07/08 04:46:37;;;;;;;8.55;2.30;;;13.70;99.90;;;;;;5018356;28;20503;-63
2022/07/08 04:49:03;;;;;;;7.93;2.28;;;13.80;99.90;;;;;;5031439;28;20029;-62
2022/07/08 04:51:29;;;;;;;11.88;2.50;;;13.90;99.90;;;;;;5026709;28;20029;-63
2022/07/08 04:53:55;;;;;;;12.30;3.40;;;13.90;99.90;;;;;;5026802;28;20044;-63
2022/07/08 04:56:20;;;;;;;6.63;2.53;;;14.00;99.90;;;;;;5028273;28;20053;-63
2022/07/08 04:58:46;;;;;;;5.47;1.98;;;14.10;99.90;;;;;;5035919;28;20049;-63
2022/07/08 05:01:13;;;;;;;6.55;2.70;;;14.10;99.90;;;;;;5026274;28;20045;-63
2022/07/08 05:03:39;;;;;;;8.55;2.40;;;14.20;99.90;;;;;;5036577;28;20041;-63
2022/07/08 05:06:05;;;;;;;8.05;2.20;;;14.30;99.90;;;;;;5021605;28;20040;-63
2022/07/08 05:08:31;;;;;;;9.27;2.40;;;14.30;99.90;;;;;;5032908;28;20041;-63
2022/07/08 05:10:56;;;;;;;8.80;2.20;;;14.40;99.90;;;;;;5026488;28;20038;-64
2022/07/08 05:13:22;;;;;;;9.57;2.55;;;14.40;99.90;;;;;;5022854;28;20046;-63
2022/07/08 05:15:47;;;;;;;8.70;2.40;;;14.40;99.90;;;;;;5026043;28;20037;-64
2022/07/08 05:18:14;;;;;;;9.57;2.20;;;14.40;99.90;;;;;;5016772;28;20077;-63
2022/07/08 05:20:39;;;;;;;9.70;2.45;;;14.40;99.90;;;;;;5031244;28;20488;-63
2022/07/08 05:23:05;;;;;;;11.23;2.40;;;14.40;99.90;;;;;;5025721;28;20263;-63
2022/07/08 05:25:30;;;;;;;10.10;2.50;;;14.40;99.90;;;;;;5022248;28;20409;-63
2022/07/08 05:27:56;;;;;;;11.90;2.45;;;14.40;99.90;;;;;;5023762;28;20038;-63
2022/07/08 05:30:22;;;;;;;11.10;2.88;;;14.50;99.90;;;;;;5020649;28;20117;-64
2022/07/08 05:32:48;;;;;;;9.20;2.58;;;14.50;99.90;;;;;;5026687;28;20025;-64
2022/07/08 05:35:13;;;;;;;9.65;2.42;;;14.70;99.90;;;;;;5023181;28;20030;-63
2022/07/08 05:37:40;;;;;;;7.50;2.38;;;14.70;99.90;;;;;;5015990;28;20091;-64
2022/07/08 05:40:08;;;;;;;7.97;2.28;;;14.80;99.90;;;;;;5021052;28;20041;-64
2022/07/08 05:42:34;;;;;;;9.05;2.10;;;14.90;99.90;;;;;;5024247;28;20036;-64
2022/07/08 05:44:59;;;;;;;10.88;2.70;;;15.00;99.90;;;;;;5025113;28;20030;-63
2022/07/08 05:47:25;;;;;;;9.15;2.00;;;15.10;99.90;;;;;;5020440;28;20116;-64
2022/07/08 05:49:51;;;;;;;11.18;2.70;;;15.10;99.90;;;;;;5013979;28;20030;-64
2022/07/08 05:52:18;;;;;;;10.30;2.50;;;15.20;99.90;;;;;;5022757;28;20522;-63
2022/07/08 05:54:45;;;;;;;9.70;2.30;;;15.30;99.90;;;;;;5026045;28;20038;-63
2022/07/08 05:57:11;;;;;;;8.05;2.28;;;15.40;99.90;;;;;;5008747;28;20042;-63
2022/07/08 05:59:37;;;;;;;11.05;2.42;;;15.50;99.90;;;;;;5020656;28;20120;-63
2022/07/08 06:02:03;;;;;;;9.18;2.42;;;15.50;99.90;;;;;;5013185;28;20068;-64
2022/07/08 06:04:29;;;;;;;8.45;2.20;;;15.50;99.90;;;;;;5022463;28;20488;-64
2022/07/08 06:06:55;;;;;;;9.68;2.10;;;15.60;99.90;;;;;;5016888;28;20044;-64
2022/07/08 06:09:20;;;;;;;9.23;2.33;;;15.60;99.90;;;;;;5011665;28;20042;-63
2022/07/08 06:11:46;;;;;;;10.90;2.35;;;15.70;99.90;;;;;;5020110;28;20040;-63
2022/07/08 06:14:11;;;;;;;10.40;2.50;;;15.70;99.90;;;;;;5019700;28;20039;-64
2022/07/08 06:16:37;;;;;;;7.97;2.25;;;15.70;99.90;;;;;;5023586;28;20038;-64
2022/07/08 06:19:03;;;;;;;7.85;2.08;;;15.80;99.90;;;;;;5015053;28;20037;-63
2022/07/08 06:21:29;;;;;;;7.63;2.20;;;15.80;99.90;;;;;;5023580;28;20040;-64
2022/07/08 06:23:54;;;;;;;13.00;2.63;;;15.80;99.90;;;;;;5029694;28;20033;-63
2022/07/08 06:26:20;;;;;;;10.75;2.30;;;15.80;99.90;;;;;;5026329;28;20034;-64
2022/07/08 06:28:46;;;;;;;10.32;2.50;;;15.80;99.90;;;;;;5028547;28;20045;-64
2022/07/08 06:31:11;;;;;;;11.43;2.22;;;15.80;99.90;;;;;;5024628;28;20063;-64
2022/07/08 06:33:37;;;;;;;9.07;2.03;;;15.80;99.90;;;;;;5024202;28;20388;-63
2022/07/08 06:36:03;;;;;;;10.70;2.13;;;15.80;99.90;;;;;;5028991;28;20503;-64
2022/07/08 06:38:28;;;;;;;14.23;2.63;;;15.90;99.90;;;;;;5026547;28;20095;-63
2022/07/08 06:40:54;;;;;;;7.72;2.20;;;16.00;99.90;;;;;;5025529;28;20030;-63
2022/07/08 06:43:19;;;;;;;10.10;2.60;;;16.10;99.90;;;;;;5018559;28;20022;-63
2022/07/08 06:45:46;;;;;;;10.02;2.42;;;16.20;99.90;;;;;;5020301;28;20104;-63
2022/07/08 06:48:12;;;;;;;11.55;2.45;;;16.30;99.90;;;;;;5021618;28;20052;-64
2022/07/08 06:50:38;;;;;;;10.55;2.45;;;16.40;99.90;;;;;;5025605;28;20480;-63
2022/07/08 06:53:04;;;;;;;9.45;2.15;;;16.50;99.90;;;;;;5026053;28;20045;-63
2022/07/08 06:55:29;;;;;;;10.30;2.42;;;16.50;99.90;;;;;;5019365;28;20100;-63
2022/07/08 06:57:55;;;;;;;16.05;2.35;;;16.60;99.90;;;;;;5025357;28;20282;-63
2022/07/08 07:00:23;;;;;;;13.63;2.22;;;16.70;99.90;;;;;;5024977;28;20405;-63
2022/07/08 07:02:50;;;;;;;15.45;2.28;;;16.70;99.90;;;;;;5028338;28;20127;-64
2022/07/08 07:05:17;;;;;;;9.82;2.22;;;16.80;99.90;;;;;;5029480;28;20103;-63
2022/07/08 07:07:43;;;;;;;10.73;2.45;;;16.90;99.90;;;;;;5025902;28;20038;-63
2022/07/08 07:10:09;;;;;;;11.98;2.47;;;16.90;99.90;;;;;;5034025;28;20429;-64
2022/07/08 07:12:35;;;;;;;9.10;2.20;;;17.10;99.90;;;;;;5031362;28;20163;-64
2022/07/08 07:15:00;;;;;;;9.23;2.35;;;17.10;99.90;;;;;;5027188;28;20154;-63
2022/07/08 07:17:26;;;;;;;10.07;2.38;;;17.20;99.90;;;;;;5026043;28;20042;-64
2022/07/08 07:19:51;;;;;;;11.43;2.42;;;17.20;99.90;;;;;;5025833;28;20034;-64
2022/07/08 07:22:18;;;;;;;9.35;2.33;;;17.30;99.90;;;;;;5027567;28;20496;-64
2022/07/08 07:24:44;;;;;;;8.38;1.90;;;17.30;99.90;;;;;;5022507;28;20041;-64
2022/07/08 07:27:10;;;;;;;10.90;2.67;;;17.30;99.90;;;;;;5021392;28;20034;-64
2022/07/08 07:29:35;;;;;;;7.15;2.08;;;17.40;99.90;;;;;;5018942;28;20132;-64
2022/07/08 07:32:01;;;;;;;10.38;2.30;;;17.50;99.90;;;;;;5025573;28;20041;-64
2022/07/08 07:34:27;;;;;;;8.63;2.20;;;17.50;99.90;;;;;;5018698;28;20088;-64
2022/07/08 07:36:52;;;;;;;11.13;2.78;;;17.60;99.90;;;;;;5025729;28;20091;-64
2022/07/08 07:39:18;;;;;;;9.15;2.25;;;17.60;99.90;;;;;;5023808;28;20093;-64
2022/07/08 07:41:44;;;;;;;9.68;2.30;;;17.70;99.90;;;;;;5024536;28;20408;-64
2022/07/08 07:44:09;;;;;;;11.30;2.80;;;17.70;99.90;;;;;;5028196;28;20116;-64
2022/07/08 07:46:35;;;;;;;9.73;2.22;;;17.80;99.90;;;;;;5031798;28;20467;-63
2022/07/08 07:49:02;;;;;;;10.68;2.10;;;17.80;99.90;;;;;;5023161;28;20037;-63
2022/07/08 07:51:28;;;;;;;9.57;2.15;;;17.90;99.90;;;;;;5024388;28;20032;-64
2022/07/08 07:53:54;;;;;;;7.57;2.35;;;18.00;99.90;;;;;;5018768;28;20038;-64
2022/07/08 07:56:20;;;;;;;10.65;2.67;;;18.10;99.90;;;;;;5019097;28;20397;-63
2022/07/08 07:58:46;;;;;;;10.90;2.45;;;18.10;99.90;;;;;;5026357;28;20041;-64
2022/07/08 08:01:12;;;;;;;10.93;2.35;;;18.10;99.90;;;;;;5025005;28;20033;-64
2022/07/08 08:03:37;;;;;;;7.60;2.65;;;18.10;99.90;;;;;;5023096;28;20041;-63
2022/07/08 08:06:04;;;;;;;7.10;1.95;;;18.10;99.90;;;;;;5016711;28;20034;-63
2022/07/08 08:08:31;;;;;;;12.90;2.30;;;18.20;99.90;;;;;;5030847;28;20037;-64
2022/07/08 08:10:58;;;;;;;9.13;2.63;;;18.20;99.90;;;;;;5030656;28;20041;-63
2022/07/08 08:13:24;;;;;;;7.97;2.08;;;18.30;99.90;;;;;;5020399;28;20046;-64
2022/07/08 08:15:49;;;;;;;10.45;2.58;;;18.30;99.90;;;;;;5013594;28;20034;-64
2022/07/08 08:18:15;;;;;;;6.28;2.05;;;18.30;99.90;;;;;;5018939;28;20548;-64
2022/07/08 08:20:42;;;;;;;10.90;2.63;;;18.30;99.90;;;;;;5025657;28;20044;-64
2022/07/08 08:23:09;;;;;;;7.88;2.22;;;18.30;99.90;;;;;;5022535;28;20480;-63
2022/07/08 08:25:34;;;;;;;8.40;2.15;;;18.30;99.90;;;;;;5017987;28;20060;-63
2022/07/08 08:28:00;;;;;;;9.32;2.40;;;18.20;99.90;;;;;;5030351;28;20404;-63
2022/07/08 08:30:25;;;;;;;7.60;2.35;;;18.20;99.90;;;;;;5027707;28;20514;-64
2022/07/08 08:32:51;;;;;;;12.23;2.67;;;18.10;99.90;;;;;;5022989;28;20041;-64
2022/07/08 08:35:17;;;;;;;9.07;2.67;;;18.10;99.90;;;;;;5024776;28;20462;-64
2022/07/08 08:37:42;;;;;;;6.38;2.22;;;18.00;99.90;;;;;;5023813;28;20087;-63
2022/07/08 08:40:10;;;;;;;9.80;2.00;;;18.00;99.90;;;;;;5029714;28;20500;-64
2022/07/08 08:42:36;;;;;;;10.10;2.40;;;17.90;99.90;;;;;;5030401;28;20403;-63
2022/07/08 08:45:04;;;;;;;9.25;2.25;;;17.90;99.90;;;;;;5029460;28;20472;-63
2022/07/08 08:47:33;;;;;;;8.40;2.50;;;17.90;99.90;;;;;;5029083;28;20124;-63
2022/07/08 08:52:55;;;;;;;12.70;2.63;;;18.10;99.90;;;;;;5017038;28;20068;-64
2022/07/08 08:55:24;;;;;;;6.15;2.40;;;18.10;99.90;;;;;;5018041;28;20037;-63
2022/07/08 08:57:50;;;;;;;9.52;2.70;;;18.20;99.90;;;;;;5026325;28;20046;-64
2022/07/08 09:00:16;;;;;;;11.80;2.00;;;18.40;99.90;;;;;;5030538;28;20051;-63
2022/07/08 09:02:42;;;;;;;7.28;2.25;;;18.50;99.90;;;;;;5024568;28;20042;-64
2022/07/08 09:05:08;;;;;;;10.85;2.50;;;18.70;99.90;;;;;;5029168;28;20021;-64
2022/07/08 09:07:34;;;;;;;11.27;2.42;;;18.90;99.90;;;;;;5024975;28;20397;-64
2022/07/08 09:10:01;;;;;;;7.53;2.15;;;19.00;99.90;;;;;;5028272;28;20033;-64
2022/07/08 09:12:26;;;;;;;7.20;1.90;;;19.10;99.90;;;;;;5028684;28;20488;-64
2022/07/08 09:14:52;;;;;;;9.38;2.45;;;19.20;99.90;;;;;;5017160;28;20057;-64
2022/07/08 09:17:18;;;;;;;7.53;2.30;;;19.30;99.90;;;;;;5023757;28;20045;-63
2022/07/08 09:19:50;;;;;;;7.75;1.88;;;19.40;99.90;;;;;;5037951;28;20099;-63
2022/07/08 09:22:16;;;;;;;6.47;2.05;;;19.50;99.90;;;;;;5024146;28;20052;-64
2022/07/08 09:24:43;;;;;;;6.05;1.90;;;19.60;99.90;;;;;;5023656;28;20104;-64
2022/07/08 09:27:10;;;;;;;7.30;2.05;;;19.70;99.90;;;;;;5015087;28;20034;-64
2022/07/08 09:29:39;;;;;;;8.77;2.40;;;19.80;99.90;;;;;;5018367;28;20037;-63
2022/07/08 09:32:15;;;;;;;5.57;2.20;;;19.90;99.90;;;;;;5027399;28;20034;-64
2022/07/08 09:34:42;;;;;;;8.90;1.98;;;20.00;99.90;;;;;;5025570;28;20444;-64
2022/07/08 09:37:12;;;;;;;6.50;2.08;;;20.10;99.90;;;;;;5020260;28;20025;-63
2022/07/08 09:39:38;;;;;;;6.55;2.08;;;20.10;99.90;;;;;;5017777;28;20064;-64
2022/07/08 09:42:08;;;;;;;9.30;2.10;;;20.20;99.90;;;;;;5013875;28;20042;-64
2022/07/08 09:44:37;;;;;;;6.35;2.15;;;20.20;99.90;;;;;;5024393;28;20045;-63
2022/07/08 09:47:10;;;;;;;5.55;1.92;;;20.30;99.90;;;;;;5014861;28;20045;-64
2022/07/08 09:49:42;;;;;;;7.53;2.08;;;20.60;99.90;;;;;;5023195;28;20583;-64
2022/07/08 09:52:08;;;;;;;;;;;20.50;99.90;;;;;;5022041;28;20056;-63
2022/07/08 09:54:34;;;;;;;7.53;1.80;;;20.50;99.90;;;;;;5030041;28;19921;-64
2022/07/08 09:57:02;;;;;;;5.13;1.80;;;20.60;99.90;;;;;;5016376;28;20408;-64
2022/07/08 09:59:29;;;;;;;8.45;2.20;;;20.70;99.90;;;;;;5023967;28;20117;-64
2022/07/08 10:01:55;;;;;;;8.40;2.10;;;20.60;99.90;;;;;;5028312;28;20048;-64
2022/07/08 10:04:23;;;;;;;6.28;1.80;;;20.60;99.90;;;;;;5021561;28;20026;-63
2022/07/08 10:06:50;;;;;;;5.68;1.92;;;20.60;99.90;;;;;;5023616;28;20029;-64
2022/07/08 10:09:16;;;;;;;11.73;2.35;;;20.50;99.90;;;;;;5022599;28;20085;-64
2022/07/08 10:11:44;;;;;;;10.20;2.83;;;20.50;99.90;;;;;;5029769;28;20038;-64
2022/07/08 10:14:09;;;;;;;6.10;1.98;;;20.60;99.90;;;;;;5012426;28;20104;-63
2022/07/08 10:16:38;;;;;;;4.93;2.00;;;20.60;99.90;;;;;;5027139;28;20037;-63
2022/07/08 10:19:08;;;;;;;5.68;1.88;;;20.50;99.90;;;;;;5035614;28;20384;-64
2022/07/08 10:21:36;;;;;;;9.68;2.13;;;20.50;99.90;;;;;;5030686;28;20044;-64
2022/07/08 10:24:06;;;;;;;7.10;2.30;;;20.50;99.90;;;;;;5031562;28;20033;-64
2022/07/08 10:26:42;;;;;;;5.82;2.10;;;20.50;99.90;;;;;;5019986;28;20030;-64
2022/07/08 10:29:10;;;;;;;6.63;2.42;;;20.50;99.90;;;;;;5029831;28;20037;-64
2022/07/08 10:31:47;;;;;;;6.88;2.03;;;20.50;99.90;;;;;;5027386;28;20529;-64
2022/07/08 10:34:17;;;;;;;9.05;3.00;;;20.60;99.90;;;;;;5019622;28;20069;-64
2022/07/08 10:36:55;;;;;;;6.35;1.98;;;20.60;99.90;;;;;;5025809;28;20494;-64
2022/07/08 10:39:29;;;;;;;7.10;1.98;;;20.60;99.90;;;;;;5019906;28;20035;-64
2022/07/08 10:42:04;;;;;;;8.32;2.00;;;20.60;99.90;;;;;;5029555;28;20055;-64
2022/07/08 10:44:45;;;;;;;6.43;2.00;;;20.70;99.90;;;;;;5046846;28;20044;-64
2022/07/08 10:47:12;;;;;;;6.20;2.38;;;20.70;99.90;;;;;;5025074;28;20033;-64
2022/07/08 10:49:45;;;;;;;4.68;1.88;;;20.70;99.90;;;;;;5026055;28;20261;-64
2022/07/08 10:52:12;;;;;;;7.43;2.55;;;20.70;99.90;;;;;;5031366;28;20086;-64
2022/07/08 10:54:38;;;;;;;7.45;2.10;;;20.70;99.90;;;;;;5028352;28;20037;-63
2022/07/08 10:57:09;;;;;;;7.22;2.00;;;20.80;99.90;;;;;;5026952;28;20079;-64
2022/07/08 10:59:37;;;;;;;6.85;2.15;;;20.90;99.90;;;;;;5027080;28;20060;-64
2022/07/08 11:02:11;;;;;;;7.63;2.35;;;21.00;99.90;;;;;;5017384;28;20092;-64
2022/07/08 11:04:40;;;;;;;7.90;2.28;;;21.00;99.90;;;;;;5033493;28;20033;-64
2022/07/08 11:07:14;;;;;;;9.90;2.40;;;21.10;99.90;;;;;;5016902;28;20100;-64
2022/07/08 11:09:41;;;;;;;8.40;2.22;;;21.10;99.90;;;;;;5028781;28;20065;-64
2022/07/08 11:12:14;;;;;;;8.05;2.20;;;21.20;99.90;;;;;;5030786;28;20045;-64
2022/07/08 11:14:44;;;;;;;8.65;2.30;;;21.30;99.90;;;;;;5016833;28;20046;-64
2022/07/08 11:17:20;;;;;;;6.78;2.45;;;21.50;99.90;;;;;;5023611;28;20061;-64
2022/07/08 11:19:47;;;;;;;6.97;2.78;;;21.80;99.90;;;;;;5028443;28;20056;-64
2022/07/08 11:22:13;;;;;;;7.18;2.22;;;22.00;99.90;;;;;;5032391;28;20033;-64
2022/07/08 11:24:40;;;;;;;7.88;2.33;;;22.20;99.90;;;;;;5024120;28;20038;-64
2022/07/08 11:27:06;;;;;;;8.15;2.35;;;22.50;99.90;;;;;;5032935;28;20503;-64
2022/07/08 11:29:33;;;;;;;6.75;2.10;;;22.70;99.90;;;;;;5022880;28;20057;-64
2022/07/08 11:32:00;;;;;;;4.03;2.17;;;22.70;99.90;;;;;;5023583;28;20083;-64
2022/07/08 11:34:25;;;;;;;7.43;2.38;;;22.80;99.90;;;;;;5022827;28;20084;-64
2022/07/08 11:36:58;;;;;;;5.70;2.38;;;22.90;99.90;;;;;;5027293;28;20465;-64
2022/07/08 11:39:24;;;;;;;7.28;2.60;;;23.00;99.90;;;;;;5025226;28;20071;-64
2022/07/08 11:41:50;;;;;;;10.52;2.40;;;23.00;99.90;;;;;;5032224;28;20033;-64
2022/07/08 11:44:18;;;;;;;8.85;2.42;;;22.90;99.90;;;;;;5026384;28;20107;-64
2022/07/08 11:46:50;;;;;;;6.72;2.20;;;22.80;99.90;;;;;;5009141;28;20052;-64
2022/07/08 11:49:16;;;;;;;5.75;2.00;;;22.90;99.90;;;;;;5030482;28;20096;-64
2022/07/08 11:51:49;;;;;;;6.95;2.47;;;22.90;99.90;;;;;;5022333;28;20683;-64
2022/07/08 11:54:18;;;;;;;5.90;2.10;;;22.90;99.90;;;;;;5021966;28;20484;-64
2022/07/08 11:56:44;;;;;;;6.60;2.03;;;22.90;99.90;;;;;;5029265;28;20494;-64
2022/07/08 11:59:09;;;;;;;5.88;2.28;;;22.90;99.90;;;;;;5022982;28;20124;-64
2022/07/08 12:01:35;;;;;;;8.75;2.30;;;22.90;99.90;;;;;;5023456;28;20033;-64
2022/07/08 12:04:05;;;;;;;6.78;2.50;;;23.10;99.90;;;;;;5030606;28;20034;-64
2022/07/08 12:06:32;;;;;;;6.05;2.20;;;23.30;99.90;;;;;;5027979;28;20427;-64
2022/07/08 12:08:58;;;;;;;7.53;2.53;;;23.30;99.90;;;;;;5029262;28;20033;-64
2022/07/08 12:11:25;;;;;;;5.95;2.40;;;23.30;99.90;;;;;;5026020;28;20041;-64
2022/07/08 12:13:52;;;;;;;6.80;2.38;;;23.30;99.90;;;;;;5033281;28;20033;-64
2022/07/08 12:16:28;;;;;;;6.03;2.15;;;23.30;99.90;;;;;;5021685;28;20049;-64
2022/07/08 12:18:54;;;;;;;7.85;2.85;;;23.20;99.90;;;;;;5016925;28;20045;-64
2022/07/08 12:21:20;;;;;;;7.43;2.60;;;23.10;99.90;;;;;;5027508;28;20038;-64
2022/07/08 12:23:58;;;;;;;9.98;2.60;;;23.00;99.90;;;;;;5017080;28;20049;-64
2022/07/08 12:26:24;;;;;;;3.25;1.70;;;23.10;99.90;;;;;;5029543;28;20041;-64
2022/07/08 12:28:50;;;;;;;7.28;2.50;;;23.10;99.90;;;;;;5026524;28;20074;-64
2022/07/08 12:31:37;;;;;;;6.38;2.13;;;23.30;99.90;;;;;;5019700;28;20389;-64
2022/07/08 12:34:03;;;;;;;5.43;2.00;;;23.60;99.90;;;;;;5034157;28;20399;-64
2022/07/08 12:36:29;;;;;;;7.03;2.40;;;23.80;99.90;;;;;;5036263;28;20554;-64
2022/07/08 12:38:55;;;;;;;8.88;2.22;;;24.00;99.90;;;;;;5026370;28;20034;-64
2022/07/08 12:41:22;;;;;;;7.00;2.35;;;24.20;99.90;;;;;;5027867;28;20112;-64
2022/07/08 12:43:47;;;;;;;5.68;2.10;;;24.50;99.90;;;;;;5024427;28;20034;-64
2022/07/08 12:46:13;;;;;;;3.97;2.10;;;24.70;99.30;;;;;;5021026;28;20029;-64
2022/07/08 12:48:39;;;;;;;8.20;2.10;;;24.70;98.40;;;;;;5020523;28;20476;-64
2022/07/08 12:51:06;;;;;;;5.25;2.10;;;24.70;97.80;;;;;;5027717;28;20030;-64